Paul Gauguin — C6TH9 — position and weather

sailwx.info

Track history (hours):
 
Tides and Currents Weather Stations Pressure Air Temp Water Temp Dewpoint Dewpoint Depression Visibility Wind Speed Wind Dir Waves Ship Positions

Paul Gauguin

Last reported at 2014-Jul-27 15:17 UTC. Time now 2014-Jul-29 22:53 UTC.
Position N 01°12' E 103°48'.

Length 153 m; draft 5.3 m.

Type: Ship. MMSI: 311652000.

Date/timePositionNaut miles runAvg speedWind from/ knotsBaromVisibWave heightAir tempDewpointWater temp
2014-Jul-27 15:17N 01°12' E 103°48'3 4.3
2014-Jul-27 14:29N 01°16' E 103°49'0 0.0
2014-Jul-27 12:29N 01°16' E 103°49'0 0.0
2014-Jul-27 11:29N 01°16' E 103°49'0 0.0
2014-Jul-27 10:29N 01°16' E 103°49'0 0.0
2014-Jul-27 09:29N 01°16' E 103°49'0 0.0
2014-Jul-27 08:29N 01°16' E 103°49'3 2.7
2014-Jul-27 07:33N 01°14' E 103°47'2 1.6
2014-Jul-27 06:11N 01°14' E 103°49'0 0.0
2014-Jul-27 05:05N 01°14' E 103°49'0 0.0
2014-Jul-27 04:17N 01°14' E 103°49'0 0.0
2014-Jul-27 03:29N 01°14' E 103°49'0 0.0
2014-Jul-27 02:23N 01°14' E 103°49'0 0.0
2014-Jul-27 01:32N 01°14' E 103°49'0 0.0
2014-Jul-27 00:20N 01°14' E 103°49'0 0.0
2014-Jul-26 23:11N 01°14' E 103°49'0 0.0
2014-Jul-26 18:08N 01°14' E 103°49'2 2.8
2014-Jul-26 17:33N 01°12' E 103°50'9 9.1
2014-Jul-26 16:33N 01°16' E 103°58'8 5.6
2014-Jul-26 15:07N 01°24' E 103°59'  
Track history (hours):
 
Tides and Currents Weather Stations Pressure Air Temp Water Temp Dewpoint Dewpoint Depression Visibility Wind Speed Wind Dir Waves Ship Positions

Paul Gauguin

Last reported at 2014-Jul-27 15:17 UTC. Time now 2014-Jul-29 22:53 UTC.
Position N 01°12' E 103°48'.

Length 153 m; draft 5.3 m.

Type: Ship. MMSI: 311652000.

Date/timePositionNaut miles runAvg speedWind from/ knotsBaromVisibWave heightAir tempDewpointWater temp
2014-Jul-27 15:17N 01°12' E 103°48'3 4.3
2014-Jul-27 14:29N 01°16' E 103°49'0 0.0
2014-Jul-27 12:29N 01°16' E 103°49'0 0.0
2014-Jul-27 11:29N 01°16' E 103°49'0 0.0
2014-Jul-27 10:29N 01°16' E 103°49'0 0.0
2014-Jul-27 09:29N 01°16' E 103°49'0 0.0
2014-Jul-27 08:29N 01°16' E 103°49'3 2.7
2014-Jul-27 07:33N 01°14' E 103°47'2 1.6
2014-Jul-27 06:11N 01°14' E 103°49'0 0.0
2014-Jul-27 05:05N 01°14' E 103°49'0 0.0
2014-Jul-27 04:17N 01°14' E 103°49'0 0.0
2014-Jul-27 03:29N 01°14' E 103°49'0 0.0
2014-Jul-27 02:23N 01°14' E 103°49'0 0.0
2014-Jul-27 01:32N 01°14' E 103°49'0 0.0
2014-Jul-27 00:20N 01°14' E 103°49'0 0.0
2014-Jul-26 23:11N 01°14' E 103°49'0 0.0
2014-Jul-26 18:08N 01°14' E 103°49'2 2.8
2014-Jul-26 17:33N 01°12' E 103°50'9 9.1
2014-Jul-26 16:33N 01°16' E 103°58'8 5.6
2014-Jul-26 15:07N 01°24' E 103°59'  

Dump ship's entire track history